Terminal Aerodrome Forecast
Issued by NWS

Home | Current Version | Previous Version | Text Only | Print | Product List | Glossary On
Versions: 1 2 3 4 5 6 7 8 9 10 11 12
314
FTUS43 KMPX 140520
TAFRNH
TAF
KRNH 140520Z 1406/1506 13005KT P6SM OVC100
     FM141400 13011KT 6SM -SN BKN025 OVC040
     FM141700 14013KT P6SM -SN OVC015
      TEMPO 1501/1504 3SM -SN OVC015=

USA.gov is the U.S. government's official web portal to all federal, state and local government web resources and services.